Time;durP1;ratioP1;P1;durP2;ratioP2;P2;SDS_P1;SDS_P2;PMS_P1;PMS_P2;Temp;Humidity;BMP_temperature;BMP_pressure;BME280_temperature;BME280_humidity;BME280_pressure;Samples;Min_cycle;Max_cycle;Signal;HPM_P1;HPM_P2
2022/05/17 00:01:56;;;;;;;17.98;9.18;;;;;;;15.14;63.68;99504.59;5037401;28;20054;-89
2022/05/17 00:04:22;;;;;;;19.73;10.00;;;;;;;15.11;63.70;99502.47;5037355;28;20025;-89
2022/05/17 00:06:48;;;;;;;11.50;7.70;;;;;;;15.18;63.41;99506.72;5037303;28;20474;-90
2022/05/17 00:09:16;;;;;;;13.95;7.82;;;;;;;15.16;63.89;99509.72;5055378;28;20044;-89
2022/05/17 00:11:43;;;;;;;15.77;8.80;;;;;;;15.10;63.91;99510.91;5041795;28;20169;-89
2022/05/17 00:14:09;;;;;;;14.90;7.55;;;;;;;15.05;64.16;99503.66;5041438;28;20026;-89
2022/05/17 00:16:34;;;;;;;14.52;8.38;;;;;;;14.95;64.40;99503.81;5041128;28;20017;-89
2022/05/17 00:19:00;;;;;;;12.63;8.07;;;;;;;15.07;64.21;99520.44;5057704;28;20016;-89
2022/05/17 00:21:25;;;;;;;15.35;9.90;;;;;;;14.92;64.36;99499.78;5040893;28;20021;-89
2022/05/17 00:23:51;;;;;;;17.27;10.50;;;;;;;14.83;64.73;99508.88;5057782;28;20036;-89
2022/05/17 00:26:16;;;;;;;14.43;9.57;;;;;;;14.88;64.48;99497.94;5057911;28;20460;-89
2022/05/17 00:28:42;;;;;;;12.75;8.98;;;;;;;14.98;64.43;99503.22;5041049;28;20039;-89
2022/05/17 00:31:08;;;;;;;13.38;8.23;;;;;;;15.08;64.11;99497.63;5040994;28;20465;-89
2022/05/17 00:33:34;;;;;;;15.73;7.50;;;;;;;15.10;63.99;99489.22;5040576;28;20024;-89
2022/05/17 00:35:59;;;;;;;13.55;8.65;;;;;;;15.07;64.29;99490.63;5040901;28;20024;-89
2022/05/17 00:38:25;;;;;;;14.13;8.68;;;;;;;15.07;63.57;99493.31;5040497;28;20017;-90
2022/05/17 00:40:50;;;;;;;13.23;8.10;;;;;;;15.18;63.57;99509.44;5057206;28;20028;-89
2022/05/17 00:46:40;;;;;;;9.80;6.53;;;;;;;14.90;63.48;99502.00;5074104;28;20530;-89
2022/05/17 00:49:06;;;;;;;8.05;6.28;;;;;;;14.93;62.83;99506.00;5058792;28;20166;-89
2022/05/17 00:51:31;;;;;;;11.23;6.50;;;;;;;14.97;62.99;99507.03;5057221;28;20044;-88
2022/05/17 00:54:02;;;;;;;11.80;6.60;;;;;;;14.91;62.81;99492.75;5040222;28;20077;-89
2022/05/17 00:56:27;;;;;;;16.95;7.80;;;;;;;14.93;62.74;99493.25;5040453;28;20021;-89
2022/05/17 00:58:54;;;;;;;8.95;6.65;;;;;;;14.90;63.04;99483.00;5040518;28;20077;-90
2022/05/17 01:01:22;;;;;;;10.10;6.30;;;;;;;14.80;63.52;99485.88;5040509;28;20398;-90
2022/05/17 01:03:53;;;;;;;10.23;6.55;;;;;;;14.95;63.38;99491.06;5040483;28;20020;-91
2022/05/17 01:06:19;;;;;;;12.15;6.20;;;;;;;14.88;63.60;99492.53;5075179;28;20398;-91
2022/05/17 01:08:44;;;;;;;23.30;7.85;;;;;;;14.72;63.42;99483.81;5040400;28;20029;-91
2022/05/17 01:11:10;;;;;;;12.35;6.65;;;;;;;14.74;63.97;99493.28;5040328;28;20032;-90
2022/05/17 01:16:20;;;;;;;12.00;6.70;;;;;;;14.70;63.33;99467.84;5060132;28;20028;-91
2022/05/17 01:18:45;;;;;;;9.32;6.28;;;;;;;14.86;63.07;99476.56;5040640;28;20017;-90
2022/05/17 01:21:13;;;;;;;12.93;6.57;;;;;;;14.81;63.85;99478.53;5039074;28;20050;-92
2022/05/17 01:23:39;;;;;;;14.00;6.75;;;;;;;14.72;63.72;99476.50;5040591;28;20021;-91
2022/05/17 01:26:06;;;;;;;12.00;6.60;;;;;;;14.69;64.12;99477.09;5056445;28;20031;-91
2022/05/17 01:28:33;;;;;;;15.15;6.40;;;;;;;14.56;64.59;99480.50;5039813;28;20502;-92
2022/05/17 01:31:04;;;;;;;11.77;6.60;;;;;;;14.55;64.22;99473.47;5040037;28;20024;-91
2022/05/17 01:33:30;;;;;;;18.93;6.87;;;;;;;14.51;64.15;99469.72;5041579;28;20482;-92
2022/05/17 01:35:55;;;;;;;13.70;6.18;;;;;;;14.62;63.84;99490.19;5039925;28;20042;-91
2022/05/17 01:38:21;;;;;;;11.32;6.10;;;;;;;14.65;63.72;99491.50;5039741;28;20029;-91
2022/05/17 01:40:46;;;;;;;13.20;5.82;;;;;;;14.47;64.25;99482.25;5040045;28;20497;-91
2022/05/17 01:43:12;;;;;;;11.98;6.63;;;;;;;14.52;63.82;99479.47;5039734;28;20414;-90
2022/05/17 01:45:37;;;;;;;10.27;6.32;;;;;;;14.59;64.18;99489.97;5039817;28;20031;-92
2022/05/17 01:48:03;;;;;;;12.32;6.55;;;;;;;14.44;64.54;99477.41;5039785;28;20115;-92
2022/05/17 01:50:28;;;;;;;26.27;6.80;;;;;;;14.37;64.21;99461.50;5056265;28;20031;-92
2022/05/17 01:52:54;;;;;;;15.60;6.47;;;;;;;14.43;64.61;99470.38;5039946;28;20482;-90
2022/05/17 01:55:19;;;;;;;18.42;6.50;;;;;;;14.41;64.47;99472.56;5039566;28;20072;-91
2022/05/17 01:57:46;;;;;;;10.13;6.40;;;;;;;14.35;64.71;99471.81;5039583;28;20090;-91
2022/05/17 02:00:13;;;;;;;16.83;6.30;;;;;;;14.27;64.86;99473.28;5039544;28;20020;-90
2022/05/17 02:02:38;;;;;;;14.25;6.28;;;;;;;14.26;64.64;99474.38;5039537;28;20123;-91
2022/05/17 02:05:04;;;;;;;9.57;6.38;;;;;;;14.28;64.61;99466.78;5039395;28;20490;-90
2022/05/17 02:07:30;;;;;;;13.38;5.97;;;;;;;14.26;65.07;99476.28;5039612;28;20103;-90
2022/05/17 02:09:55;;;;;;;15.60;7.35;;;;;;;14.26;64.95;99473.59;5039037;28;20115;-91
2022/05/17 02:12:21;;;;;;;16.10;7.20;;;;;;;14.16;65.24;99469.09;5039390;28;20036;-92
2022/05/17 02:14:46;;;;;;;12.50;6.65;;;;;;;14.03;65.34;99446.22;5056198;28;20105;-91
2022/05/17 02:17:12;;;;;;;19.25;6.60;;;;;;;13.89;65.71;99446.13;5039298;28;20028;-90
2022/05/17 02:19:38;;;;;;;11.35;6.82;;;;;;;13.95;65.74;99452.28;5055644;28;20108;-91
2022/05/17 02:22:04;;;;;;;17.70;6.45;;;;;;;13.88;65.87;99458.06;5039202;28;20029;-90
2022/05/17 02:24:30;;;;;;;9.77;6.18;;;;;;;13.96;65.35;99467.41;5039014;28;20021;-91
2022/05/17 02:26:56;;;;;;;7.53;5.80;;;;;;;13.79;66.04;99448.94;5055760;28;20557;-90
2022/05/17 02:29:23;;;;;;;16.42;6.55;;;;;;;13.75;66.22;99456.03;5038967;28;20055;-91
2022/05/17 02:31:49;;;;;;;8.02;6.28;;;;;;;13.84;66.05;99462.44;5038780;28;20021;-90
2022/05/17 02:34:14;;;;;;;11.73;6.20;;;;;;;13.75;66.26;99446.00;5039038;28;20036;-90
2022/05/17 02:36:40;;;;;;;19.88;7.93;;;;;;;13.74;65.95;99438.97;5038664;28;20025;-92
2022/05/17 02:39:05;;;;;;;12.73;6.50;;;;;;;13.74;66.29;99449.81;5038551;28;20020;-91
2022/05/17 02:41:31;;;;;;;16.30;6.38;;;;;;;13.67;66.87;99445.81;5038488;28;20032;-91
2022/05/17 02:43:56;;;;;;;11.95;6.55;;;;;;;13.70;66.54;99454.19;5038382;28;20493;-91
2022/05/17 02:46:22;;;;;;;11.32;6.18;;;;;;;13.72;66.52;99453.91;5055595;28;20467;-90
2022/05/17 02:48:47;;;;;;;19.13;6.68;;;;;;;13.78;66.99;99466.28;5038651;28;20028;-91
2022/05/17 02:51:15;;;;;;;11.30;5.85;;;;;;;13.75;66.54;99447.91;5038900;28;20175;-91
2022/05/17 02:53:41;;;;;;;15.70;6.32;;;;;;;13.82;66.14;99453.78;5038889;28;20017;-92
2022/05/17 02:56:07;;;;;;;18.70;7.03;;;;;;;13.79;66.67;99462.47;5038505;28;20071;-92
2022/05/17 02:58:33;;;;;;;18.00;6.80;;;;;;;13.74;66.79;99454.44;5038326;28;20432;-93
2022/05/17 03:00:58;;;;;;;18.48;7.65;;;;;;;13.71;67.08;99450.38;5055166;28;20034;-90
2022/05/17 03:03:24;;;;;;;16.83;6.90;;;;;;;13.74;66.62;99451.72;5055363;28;20029;-91
2022/05/17 03:05:49;;;;;;;18.60;6.35;;;;;;;13.78;66.40;99454.63;5038277;28;20024;-90
2022/05/17 03:08:15;;;;;;;20.17;6.63;;;;;;;13.75;66.43;99464.94;5037972;28;20028;-90
2022/05/17 03:10:40;;;;;;;10.32;6.05;;;;;;;13.88;66.28;99471.59;5038196;28;20024;-92
2022/05/17 03:13:09;;;;;;;13.77;6.20;;;;;;;13.95;65.70;99468.53;5038288;28;20051;-91
2022/05/17 03:15:35;;;;;;;9.60;6.60;;;;;;;13.88;66.09;99459.94;5054927;28;20108;-91
2022/05/17 03:18:00;;;;;;;10.18;7.13;;;;;;;13.88;65.92;99471.59;5038296;28;20021;-92
2022/05/17 03:20:26;;;;;;;13.65;7.32;;;;;;;13.82;66.11;99467.31;5038043;28;20060;-91
2022/05/17 03:22:51;;;;;;;11.15;6.10;;;;;;;13.92;65.91;99466.38;5054600;28;20025;-90
2022/05/17 03:25:17;;;;;;;19.35;6.78;;;;;;;13.80;65.96;99455.97;5022814;28;20471;-90
2022/05/17 03:27:42;;;;;;;10.75;6.88;;;;;;;13.77;65.72;99461.94;5032102;28;20036;-90
2022/05/17 03:30:08;;;;;;;12.90;6.28;;;;;;;13.98;65.61;99473.34;5030836;28;20079;-91
2022/05/17 03:32:34;;;;;;;16.30;7.65;;;;;;;13.86;65.74;99468.38;5031538;28;20049;-90
2022/05/17 03:35:00;;;;;;;20.52;8.55;;;;;;;13.89;65.52;99472.38;5018242;28;20036;-90
2022/05/17 03:37:26;;;;;;;17.92;8.30;;;;;;;13.89;65.50;99475.91;5013968;28;20094;-88
2022/05/17 03:39:52;;;;;;;17.33;8.35;;;;;;;13.87;65.29;99478.09;5030973;28;20052;-89
2022/05/17 03:42:18;;;;;;;12.48;8.05;;;;;;;13.90;65.34;99484.81;5014334;28;20106;-88
2022/05/17 03:44:43;;;;;;;27.05;8.52;;;;;;;13.86;65.74;99476.47;5000463;28;20025;-90
2022/05/17 03:47:09;;;;;;;18.70;8.45;;;;;;;13.95;65.07;99480.16;5020093;28;20087;-88
2022/05/17 03:49:36;;;;;;;17.40;7.88;;;;;;;14.04;65.26;99479.53;5002694;28;20025;-90
2022/05/17 03:52:02;;;;;;;23.25;8.90;;;;;;;13.95;65.00;99469.31;5001810;28;20017;-92
2022/05/17 03:54:27;;;;;;;24.48;9.35;;;;;;;13.89;65.46;99469.69;5002195;28;20049;-91
2022/05/17 03:56:53;;;;;;;22.70;7.78;;;;;;;14.02;64.80;99473.59;5002208;28;20060;-91
2022/05/17 03:59:18;;;;;;;20.45;8.48;;;;;;;13.95;65.40;99473.94;5001998;28;20021;-90
2022/05/17 04:01:44;;;;;;;20.50;8.90;;;;;;;14.09;64.86;99466.75;5018135;28;20018;-89
2022/05/17 04:04:11;;;;;;;18.17;8.13;;;;;;;14.13;64.74;99475.91;5004700;28;20487;-90
2022/05/17 04:06:36;;;;;;;25.15;10.20;;;;;;;14.18;64.32;99474.22;5021275;28;20029;-87
2022/05/17 04:09:02;;;;;;;23.25;8.73;;;;;;;14.22;64.77;99465.22;5029606;28;20093;-93
2022/05/17 04:11:28;;;;;;;24.33;9.65;;;;;;;14.20;64.22;99459.28;5027909;28;20021;-95
2022/05/17 04:13:53;;;;;;;23.67;10.02;;;;;;;14.39;64.69;99480.19;5027059;28;20071;-93
2022/05/17 04:16:19;;;;;;;30.52;10.38;;;;;;;14.48;64.13;99471.09;5029307;28;20063;-93
2022/05/17 04:18:46;;;;;;;33.78;10.38;;;;;;;14.59;63.50;99479.13;5041299;28;20450;-92
2022/05/17 04:21:17;;;;;;;20.05;8.80;;;;;;;14.66;62.84;99469.53;5048477;28;20024;-96
2022/05/17 04:28:01;;;;;;;10.90;7.22;;;;;;;15.21;60.44;99500.69;5048458;28;20560;-96
2022/05/17 04:30:26;;;;;;;16.50;7.22;;;;;;;15.15;60.27;99487.22;5038919;28;20045;-95
2022/05/17 04:32:52;;;;;;;11.95;6.25;;;;;;;15.30;59.80;99496.22;5004540;28;20036;-93
2022/05/17 04:35:18;;;;;;;116.30;14.65;;;;;;;15.30;60.39;99493.50;5002931;28;20021;-94
2022/05/17 04:37:43;;;;;;;354.60;30.13;;;;;;;15.35;60.15;99479.84;5004387;28;20021;-95
2022/05/17 04:40:10;;;;;;;19.23;7.05;;;;;;;15.40;59.72;99468.09;5005451;28;20025;-95
2022/05/17 04:42:36;;;;;;;21.15;7.30;;;;;;;15.52;59.48;99477.41;5001351;28;20094;-89
2022/05/17 04:45:03;;;;;;;13.57;6.78;;;;;;;15.76;58.88;99492.72;5002917;28;20037;-89
2022/05/17 04:47:29;;;;;;;25.35;8.10;;;;;;;15.78;59.03;99487.81;5002353;28;20026;-91
2022/05/17 04:49:55;;;;;;;21.95;7.00;;;;;;;15.98;58.20;99499.38;4983906;28;20113;-91
2022/05/17 04:52:23;;;;;;;10.45;6.65;;;;;;;16.10;58.07;99495.06;5005926;28;20022;-90
2022/05/17 04:54:49;;;;;;;27.00;7.82;;;;;;;16.00;58.28;99480.88;5000942;28;20108;-90
2022/05/17 04:57:15;;;;;;;14.95;6.80;;;;;;;16.17;57.52;99490.03;5001062;28;20049;-91
2022/05/17 04:59:41;;;;;;;15.95;6.45;;;;;;;16.28;57.13;99484.41;5002726;28;20400;-93
2022/05/17 05:02:06;;;;;;;9.93;5.68;;;;;;;16.38;56.61;99488.81;5002430;28;20021;-91
2022/05/17 05:04:32;;;;;;;12.23;7.70;;;;;;;16.34;57.04;99475.03;5011967;28;20060;-91
2022/05/17 05:06:57;;;;;;;16.70;6.93;;;;;;;16.48;56.94;99483.97;5010022;28;20491;-90
2022/05/17 05:09:23;;;;;;;18.90;8.05;;;;;;;16.41;58.07;99488.19;5045710;28;20052;-87
2022/05/17 05:11:50;;;;;;;20.95;8.40;;;;;;;16.44;57.74;99474.81;5025742;28;20158;-95
2022/05/17 05:14:16;;;;;;;11.77;6.57;;;;;;;16.47;57.72;99470.66;5021410;28;20025;-93
2022/05/17 05:16:42;;;;;;;25.25;8.05;;;;;;;16.67;57.55;99491.97;5025805;28;20033;-92
2022/05/17 05:19:07;;;;;;;14.93;6.60;;;;;;;16.59;58.00;99476.38;4997303;28;20048;-93
2022/05/17 05:21:33;;;;;;;19.77;6.60;;;;;;;16.55;57.48;99473.47;5002844;28;20032;-90
2022/05/17 05:24:00;;;;;;;14.63;5.60;;;;;;;16.81;57.19;99500.13;5022915;28;20032;-88
2022/05/17 05:26:25;;;;;;;25.00;7.55;;;;;;;16.75;57.16;99491.25;5012003;28;20052;-89
2022/05/17 05:28:51;;;;;;;13.50;5.80;;;;;;;16.81;56.62;99483.00;5036976;28;20083;-89
2022/05/17 05:31:17;;;;;;;12.52;6.25;;;;;;;16.86;56.87;99470.09;5015198;28;20029;-88
2022/05/17 05:33:43;;;;;;;13.70;5.50;;;;;;;16.96;56.67;99477.22;5014809;28;20029;-87
2022/05/17 05:36:09;;;;;;;16.23;6.50;;;;;;;17.03;56.09;99483.00;5014089;28;20022;-91
2022/05/17 05:38:34;;;;;;;10.43;7.15;;;;;;;17.15;55.80;99477.03;4981463;28;20028;-92
2022/05/17 05:41:00;;;;;;;17.95;7.13;;;;;;;17.32;55.33;99493.47;5000670;28;20087;-90
2022/05/17 05:43:26;;;;;;;13.65;6.45;;;;;;;17.44;55.41;99501.06;5000843;28;20032;-89
2022/05/17 05:45:51;;;;;;;15.02;6.28;;;;;;;17.41;54.90;99481.81;5000782;28;20025;-87
2022/05/17 05:48:17;;;;;;;10.23;5.78;;;;;;;17.59;54.31;99497.16;5034382;28;20052;-90
2022/05/17 05:50:47;;;;;;;21.98;6.57;;;;;;;17.71;54.91;99494.66;4998637;28;20057;-89
2022/05/17 05:53:13;;;;;;;19.95;6.03;;;;;;;17.83;54.01;99496.81;4993071;28;20107;-89
2022/05/17 05:55:40;;;;;;;13.95;6.07;;;;;;;17.87;53.55;99489.63;5026759;28;20059;-89
2022/05/17 05:58:10;;;;;;;12.90;6.97;;;;;;;18.05;53.62;99489.69;4999747;28;20662;-91
2022/05/17 06:00:36;;;;;;;12.15;5.68;;;;;;;18.14;53.57;99480.44;5008664;28;20057;-88
2022/05/17 06:03:10;;;;;;;22.55;6.32;;;;;;;18.17;53.21;99482.50;5036962;28;20033;-94
2022/05/17 06:05:37;;;;;;;15.30;6.38;;;;;;;18.32;52.65;99483.19;5010867;28;20091;-90
2022/05/17 06:08:03;;;;;;;18.98;6.47;;;;;;;18.57;53.15;99500.72;5015302;28;20100;-91
2022/05/17 06:10:29;;;;;;;14.40;5.95;;;;;;;18.64;53.10;99489.38;5012477;28;20419;-93
2022/05/17 06:12:54;;;;;;;19.27;6.40;;;;;;;18.72;52.26;99485.84;5028610;28;20104;-90
2022/05/17 06:15:20;;;;;;;25.80;6.90;;;;;;;18.87;52.20;99479.94;5037779;28;20059;-90
2022/05/17 06:17:46;;;;;;;28.63;8.02;;;;;;;18.95;52.72;99473.66;5002853;28;20110;-92
2022/05/17 06:20:11;;;;;;;15.23;6.93;;;;;;;19.02;51.64;99458.75;4994357;28;20018;-92
2022/05/17 06:22:38;;;;;;;25.67;7.13;;;;;;;19.36;51.11;99494.19;4995747;28;20026;-92
2022/05/17 06:25:04;;;;;;;38.28;7.95;;;;;;;19.43;51.18;99476.50;4996149;28;20038;-89
2022/05/17 06:27:36;;;;;;;71.10;7.30;;;;;;;19.52;50.51;99474.53;5011975;28;20025;-89
2022/05/17 06:30:02;;;;;;;31.50;6.72;;;;;;;19.56;51.57;99465.34;4990522;28;20045;-93
2022/05/17 06:32:29;;;;;;;9.98;5.72;;;;;;;19.68;51.52;99464.69;4996046;28;20041;-88
2022/05/17 06:35:02;;;;;;;27.30;10.00;;;;;;;19.97;51.82;99483.09;5005536;28;20030;-88
2022/05/17 06:37:27;;;;;;;20.63;7.07;;;;;;;20.12;51.08;99478.19;5024771;28;20112;-95
2022/05/17 06:39:53;;;;;;;13.20;6.22;;;;;;;20.27;50.16;99471.34;5000939;28;20021;-93
2022/05/17 06:42:18;;;;;;;10.82;5.28;;;;;;;20.45;50.01;99486.53;5001112;28;20040;-92
2022/05/17 06:44:47;;;;;;;9.35;5.30;;;;;;;20.49;49.18;99473.00;5015878;28;20029;-91
2022/05/17 06:47:12;;;;;;;13.88;5.40;;;;;;;20.50;49.17;99448.06;4982488;28;20026;-90
2022/05/17 06:49:39;;;;;;;8.30;4.95;;;;;;;20.68;48.09;99465.16;5002003;28;20025;-90
2022/05/17 06:52:07;;;;;;;8.65;5.45;;;;;;;20.93;47.12;99466.06;4989771;28;20068;-91
2022/05/17 06:54:35;;;;;;;11.73;5.45;;;;;;;21.12;46.69;99467.50;4983541;28;20087;-93
2022/05/17 06:57:06;;;;;;;13.88;6.10;;;;;;;21.20;47.00;99464.69;5003925;28;20064;-92
2022/05/17 06:59:32;;;;;;;18.25;5.53;;;;;;;21.33;46.66;99462.81;4999670;28;20109;-92
2022/05/17 07:02:32;;;;;;;14.02;5.63;;;;;;;21.46;47.43;99466.41;5001870;28;20102;-91
2022/05/17 07:05:04;;;;;;;25.30;8.15;;;;;;;21.52;47.29;99451.34;5014016;28;20049;-95
2022/05/17 07:23:52;;;;;;;70.68;12.88;;;;;;;22.29;45.53;99441.69;5012767;28;20550;-90
2022/05/17 07:26:18;;;;;;;23.00;7.82;;;;;;;22.45;45.14;99455.47;4994260;28;20073;-91
2022/05/17 07:28:45;;;;;;;20.50;9.55;;;;;;;22.48;44.81;99427.34;4995134;28;20085;-88
2022/05/17 07:31:11;;;;;;;23.65;8.40;;;;;;;22.69;44.75;99435.41;4978621;28;20041;-88
2022/05/17 07:33:37;;;;;;;18.85;6.93;;;;;;;22.84;43.78;99434.66;4994804;28;20518;-90
2022/05/17 07:36:03;;;;;;;17.67;7.47;;;;;;;23.00;43.08;99438.25;5011410;28;20037;-90
2022/05/17 07:38:28;;;;;;;28.75;7.25;;;;;;;23.11;42.69;99432.28;5011019;28;20557;-90
2022/05/17 07:40:54;;;;;;;20.33;6.20;;;;;;;23.26;41.96;99428.75;4978185;28;20022;-89
2022/05/17 07:43:20;;;;;;;25.85;6.97;;;;;;;23.37;41.80;99440.84;5011098;28;20643;-88
2022/05/17 07:45:49;;;;;;;10.25;4.40;;;;;;;23.46;37.41;99426.94;4978474;28;20038;-89
2022/05/17 07:48:16;;;;;;;9.32;3.67;;;;;;;23.67;35.07;99443.16;4979199;28;20033;-89
2022/05/17 07:50:41;;;;;;;12.20;3.75;;;;;;;23.67;35.73;99425.88;4994040;28;20385;-88
2022/05/17 07:53:13;;;;;;;43.67;6.90;;;;;;;23.78;36.00;99421.44;5012702;28;20118;-91
2022/05/17 07:55:39;;;;;;;18.92;4.25;;;;;;;23.86;35.06;99423.22;4999915;28;20075;-93
2022/05/17 07:58:08;;;;;;;5.95;3.30;;;;;;;23.99;35.17;99421.97;4981417;28;20112;-93
2022/05/17 08:00:34;;;;;;;12.02;3.25;;;;;;;24.15;35.37;99421.94;4997483;28;20033;-95
2022/05/17 08:03:04;;;;;;;9.55;3.30;;;;;;;24.31;35.40;99424.66;4990211;28;20030;-96
2022/05/17 08:05:29;;;;;;;9.75;3.65;;;;;;;24.25;35.35;99425.28;4995520;28;20033;-89
2022/05/17 08:07:55;;;;;;;20.83;4.13;;;;;;;24.22;36.01;99418.56;5021473;28;20534;-88
2022/05/17 08:10:20;;;;;;;33.92;7.35;;;;;;;24.39;36.46;99425.59;5002423;28;20084;-89
2022/05/17 08:12:46;;;;;;;10.98;3.83;;;;;;;24.53;36.44;99414.13;5002218;28;20029;-94
2022/05/17 08:15:12;;;;;;;14.48;4.32;;;;;;;24.69;36.53;99416.81;4983818;28;20037;-93
2022/05/17 08:17:39;;;;;;;12.93;4.00;;;;;;;24.90;36.08;99419.19;4982284;28;20067;-94
2022/05/17 08:20:09;;;;;;;9.52;3.70;;;;;;;24.94;36.03;99406.28;5006209;28;20026;-96
2022/05/17 08:22:39;;;;;;;16.05;4.72;;;;;;;25.06;36.18;99400.63;5003164;28;20114;-94
2022/05/17 08:27:51;;;;;;;6.82;2.60;;;;;;;25.46;32.44;99413.16;5005259;28;20084;-95
2022/05/17 08:30:19;;;;;;;11.73;4.70;;;;;;;25.46;34.57;99395.81;5004214;28;20196;-94
2022/05/17 08:33:17;;;;;;;11.63;4.10;;;;;;;25.63;33.74;99400.84;4991960;28;20098;-96
2022/05/17 08:35:49;;;;;;;8.73;2.90;;;;;;;25.68;30.84;99391.47;4997488;28;20040;-95
2022/05/17 08:38:22;;;;;;;15.38;9.27;;;;;;;25.79;30.72;99408.97;5008983;28;20035;-94
2022/05/17 08:40:48;;;;;;;4.78;2.30;;;;;;;25.94;30.49;99418.28;4997758;28;20032;-92
2022/05/17 08:43:19;;;;;;;10.20;2.72;;;;;;;25.77;30.26;99387.28;5026694;28;20034;-96
2022/05/17 08:46:04;;;;;;;;;;;;;;;26.04;30.35;99414.91;5016585;28;20033;-96
2022/05/17 08:48:43;;;;;;;10.38;3.22;;;;;;;26.06;29.12;99400.72;5033316;28;19927;-94
2022/05/17 08:51:13;;;;;;;20.30;10.43;;;;;;;26.23;31.21;99405.72;5001185;28;20017;-95
2022/05/17 08:53:49;;;;;;;8.75;3.13;;;;;;;26.18;30.34;99390.25;4996377;28;20037;-96
2022/05/17 08:56:21;;;;;;;15.18;3.95;;;;;;;26.31;30.36;99396.34;5008692;28;20033;-96
2022/05/17 08:58:48;;;;;;;10.50;5.20;;;;;;;26.28;30.35;99391.59;5022066;28;20021;-92
2022/05/17 09:01:24;;;;;;;9.77;4.35;;;;;;;26.42;30.40;99394.53;4989365;28;20037;-93
2022/05/17 09:04:23;;;;;;;5.10;2.25;;;;;;;26.61;27.15;99404.66;4988942;28;20036;-93
2022/05/17 09:07:20;;;;;;;15.73;7.78;;;;;;;26.42;28.01;99385.47;5020208;28;20026;-94
2022/05/17 09:10:14;;;;;;;10.85;2.80;;;;;;;26.75;28.62;99403.22;5004020;28;20037;-93
2022/05/17 09:12:50;;;;;;;4.20;2.10;;;;;;;26.87;27.35;99399.44;5022398;28;20041;-94
2022/05/17 09:15:16;;;;;;;7.82;2.65;;;;;;;27.01;27.30;99389.31;4988071;28;20033;-95
2022/05/17 09:18:03;;;;;;;13.20;3.75;;;;;;;27.24;28.22;99384.84;4989460;28;20032;-96
2022/05/17 09:20:35;;;;;;;10.90;5.43;;;;;;;27.32;27.27;99381.75;5008512;28;20028;-95
2022/05/17 09:23:04;;;;;;;26.02;19.38;;;;;;;27.39;27.17;99358.88;4992582;28;20039;-95
2022/05/17 09:26:01;;;;;;;5.53;2.65;;;;;;;27.60;27.91;99372.09;5001163;28;20034;-96
2022/05/17 09:28:28;;;;;;;7.57;2.60;;;;;;;27.72;29.38;99374.56;5027438;28;20052;-96
2022/05/17 09:31:18;;;;;;;5.32;2.97;;;;;;;27.81;28.84;99375.03;5021067;28;20045;-96
2022/05/17 09:33:50;;;;;;;6.25;2.55;;;;;;;27.59;28.57;99365.78;5016558;28;20103;-91
2022/05/17 09:36:18;;;;;;;5.90;2.58;;;;;;;27.57;28.19;99370.91;5019466;28;20024;-91
2022/05/17 09:38:44;;;;;;;7.95;2.92;;;;;;;27.46;28.60;99358.97;4982346;28;20450;-91
2022/05/17 09:41:12;;;;;;;6.22;2.42;;;;;;;27.44;29.11;99355.78;4987905;28;20022;-92
2022/05/17 09:43:48;;;;;;;6.22;2.72;;;;;;;27.42;29.31;99350.63;4986195;28;20068;-89
2022/05/17 09:46:33;;;;;;;5.72;3.35;;;;;;;27.59;29.28;99363.00;5005046;28;20025;-87
2022/05/17 09:54:38;;;;;;;6.72;2.83;;;;;;;27.67;28.41;99322.38;5025001;28;20123;-90
2022/05/17 09:57:19;;;;;;;9.15;4.07;;;;;;;27.78;29.13;99334.28;5017478;28;20131;-91
2022/05/17 09:59:45;;;;;;;10.30;6.45;;;;;;;27.75;28.81;99329.53;4990399;28;20055;-91
2022/05/17 10:02:33;;;;;;;5.68;2.72;;;;;;;27.67;28.30;99318.81;4989465;28;20028;-91
2022/05/17 10:05:21;;;;;;;5.45;2.70;;;;;;;27.71;27.48;99330.69;5004545;28;20416;-92
2022/05/17 10:08:26;;;;;;;6.47;2.45;;;;;;;27.71;27.64;99327.94;4984580;28;20095;-95
2022/05/17 10:11:19;;;;;;;6.50;2.88;;;;;;;27.77;28.62;99340.22;4999370;28;20488;-91
2022/05/17 10:13:45;;;;;;;5.90;2.47;;;;;;;27.88;27.30;99341.09;5017806;28;20029;-89
2022/05/17 10:16:42;;;;;;;8.57;2.90;;;;;;;27.82;27.81;99324.03;5032283;28;20033;-93
2022/05/17 10:20:08;;;;;;;5.43;2.30;;;;;;;27.76;27.19;99302.66;4992341;28;20064;-94
2022/05/17 10:23:16;;;;;;;4.45;2.35;;;;;;;28.02;27.53;99329.31;5010972;28;20026;-96
2022/05/17 10:25:46;;;;;;;3.20;2.30;;;;;;;27.85;27.00;99305.88;5018531;28;20515;-93
2022/05/17 10:31:10;;;;;;;13.93;2.70;;;;;;;28.00;27.06;99317.84;5021261;28;20065;-90
2022/05/17 10:34:13;;;;;;;5.20;2.30;;;;;;;28.15;26.00;99302.88;4982353;28;20038;-91
2022/05/17 10:37:18;;;;;;;;;;;;;;;;;;;;;
2022/05/17 10:40:07;;;;;;;5.75;3.28;;;;;;;28.41;26.53;99304.56;4970718;28;20152;-95
2022/05/17 10:42:33;;;;;;;4.55;2.53;;;;;;;28.46;26.07;99280.44;5002130;28;20101;-95
2022/05/17 10:44:59;;;;;;;5.85;2.50;;;;;;;28.63;27.04;99298.31;4992974;28;20506;-95
2022/05/17 10:50:51;;;;;;;8.30;4.50;;;;;;;28.52;26.16;99287.22;5269137;23;20055;-96
2022/05/17 10:59:35;;;;;;;;;;;;;;;;;;;;;
2022/05/17 11:13:43;;;;;;;11.23;3.40;;;;;;;28.95;24.24;99262.31;5065657;28;20032;-95
2022/05/17 11:16:21;;;;;;;217.73;80.40;;;;;;;29.08;23.97;99260.75;5038041;28;20503;-92
2022/05/17 11:18:54;;;;;;;5.50;2.95;;;;;;;29.11;24.96;99243.34;5018598;28;20039;-89
2022/05/17 11:21:29;;;;;;;6.50;2.60;;;;;;;28.64;25.97;99241.72;5011146;28;20133;-91
2022/05/17 11:24:19;;;;;;;6.80;2.65;;;;;;;29.00;25.95;99253.63;5014688;28;20029;-88
2022/05/17 11:27:09;;;;;;;13.40;2.95;;;;;;;28.77;25.88;99245.69;5020478;28;20034;-93
2022/05/17 11:30:27;;;;;;;7.85;4.45;;;;;;;28.99;25.15;99240.94;5020283;28;20033;-95
2022/05/17 11:33:23;;;;;;;7.60;2.88;;;;;;;29.30;24.71;99236.59;5017999;28;20052;-94
2022/05/17 11:35:49;;;;;;;5.32;2.50;;;;;;;29.47;23.47;99225.84;5020940;28;20033;-91
2022/05/17 11:38:31;;;;;;;6.93;3.53;;;;;;;29.50;22.72;99205.66;5014219;28;20028;-89
2022/05/17 11:41:21;;;;;;;6.30;3.95;;;;;;;29.64;22.95;99208.38;5011844;28;20071;-91
2022/05/17 11:43:58;;;;;;;8.82;3.05;;;;;;;29.72;23.22;99221.06;5001245;28;20061;-90
2022/05/17 11:46:34;;;;;;;3.70;1.90;;;;;;;29.64;23.49;99227.03;5021832;28;20029;-88
2022/05/17 11:49:29;;;;;;;7.35;2.75;;;;;;;29.46;23.98;99197.31;5054393;28;20035;-96
2022/05/17 11:52:00;;;;;;;5.80;2.00;;;;;;;29.41;24.00;99206.84;5015757;28;20059;-95
2022/05/17 11:54:42;;;;;;;5.50;2.95;;;;;;;29.46;24.05;99213.19;5039724;28;20086;-93
2022/05/17 11:57:10;;;;;;;;;;;;;;;29.52;24.08;99209.59;5037537;28;20029;-89
2022/05/17 11:59:36;;;;;;;7.63;2.03;;;;;;;29.56;23.71;99210.38;5052456;28;19963;-90
2022/05/17 12:02:09;;;;;;;7.25;2.90;;;;;;;29.57;22.91;99194.50;5034181;28;20025;-89
2022/05/17 12:04:42;;;;;;;3.60;1.95;;;;;;;29.70;21.11;99201.25;4991217;28;20057;-90
2022/05/17 12:08:05;;;;;;;6.82;2.30;;;;;;;29.72;21.07;99179.44;5025201;28;20040;-96
2022/05/17 12:10:30;;;;;;;5.13;1.90;;;;;;;29.76;21.14;99174.66;4972962;28;20041;-91
2022/05/17 12:12:58;;;;;;;4.13;2.40;;;;;;;29.90;23.99;99209.09;5021567;28;20495;-89
2022/05/17 12:16:06;;;;;;;6.05;2.30;;;;;;;29.66;24.21;99177.47;5043067;28;20025;-96
2022/05/17 12:18:53;;;;;;;6.05;2.40;;;;;;;29.60;24.30;99177.06;5051270;28;20413;-95
2022/05/17 12:21:40;;;;;;;37.65;33.38;;;;;;;29.67;25.08;99195.69;5009027;28;20488;-94
2022/05/17 12:24:22;;;;;;;10.07;5.10;;;;;;;29.65;24.87;99181.41;5010188;28;20056;-95
2022/05/17 12:26:59;;;;;;;;;;;;;;;29.89;24.99;99183.31;5016903;28;20507;-89
2022/05/17 12:32:12;;;;;;;7.05;2.88;;;;;;;29.94;24.14;99162.66;5007118;28;20542;-89
2022/05/17 12:35:08;;;;;;;;;;;;;;;;;;;;;
2022/05/17 12:43:44;;;;;;;6.60;2.60;;;;;;;30.67;21.77;99161.00;5014592;28;20071;-95
2022/05/17 12:46:13;;;;;;;8.77;2.58;;;;;;;30.83;21.47;99142.59;5006813;28;20057;-94
2022/05/17 12:48:39;;;;;;;8.05;2.63;;;;;;;30.85;22.77;99135.84;5006577;28;20025;-94
2022/05/17 12:51:08;;;;;;;5.75;2.60;;;;;;;30.65;23.38;99124.50;4987145;28;20035;-95
2022/05/17 12:53:50;;;;;;;3.47;2.05;;;;;;;30.47;24.04;99125.44;4989474;28;20037;-93
2022/05/17 12:56:39;;;;;;;5.72;2.20;;;;;;;30.28;23.97;99123.97;4989746;28;20048;-95